Terminal Aerodrome Forecast
Issued by NWS Louisville, KY

Home | Current Version | Previous Version | Text Only | Print | Product List | Glossary On
Versions: 1 2 3 4 5 6 7 8 9 10 11 12 13 14 15 16 17 18 19 20 21
580
FTUS43 KLMK 202331
TAFBWG
TAF
KBWG 202331Z 2100/2124 22011KT P6SM VCTS BKN035CB
     FM210400 24008KT 4SM -SHRA BR BKN015
     FM210900 27005KT P6SM VCSH BKN008
     FM211400 31007KT P6SM BKN030
     FM211800 31010KT P6SM BKN045=

USA.gov is the U.S. government's official web portal to all federal, state and local government web resources and services.